createdAt,value
2022-12-15T00:00:08.041Z,96.51
2022-12-15T00:00:19.038Z,96.51
2022-12-15T00:00:30.099Z,96.56
2022-12-15T00:00:41.112Z,96.51
2022-12-15T00:00:52.074Z,96.51
2022-12-15T00:01:03.105Z,96.56
2022-12-15T00:01:13.997Z,96.51
2022-12-15T00:01:24.983Z,96.51
2022-12-15T00:01:35.975Z,96.56
2022-12-15T00:01:46.964Z,96.51
2022-12-15T00:01:57.982Z,96.56
2022-12-15T00:02:09.011Z,96.56
2022-12-15T00:02:20.096Z,96.62
2022-12-15T00:02:31.055Z,96.62
2022-12-15T00:02:42.013Z,96.62
2022-12-15T00:02:53.016Z,96.66
2022-12-15T00:03:04.044Z,96.66
2022-12-15T00:03:15.040Z,96.66
2022-12-15T00:03:26.135Z,96.66
2022-12-15T00:03:37.409Z,96.66
2022-12-15T00:03:48.015Z,96.66
2022-12-15T00:03:58.881Z,96.66
2022-12-15T00:04:09.853Z,96.66
2022-12-15T00:04:20.851Z,96.66
2022-12-15T00:04:31.833Z,96.66
2022-12-15T00:04:42.831Z,96.66
2022-12-15T00:04:53.823Z,96.66
2022-12-15T00:05:04.814Z,96.66
2022-12-15T00:05:15.807Z,96.66
2022-12-15T00:05:26.793Z,96.66
2022-12-15T00:05:37.784Z,96.66
2022-12-15T00:05:50.023Z,96.66
2022-12-15T00:05:59.766Z,96.66
2022-12-15T00:06:10.762Z,96.66
2022-12-15T00:06:21.795Z,96.66
2022-12-15T00:06:32.832Z,96.56
2022-12-15T00:06:43.783Z,96.56
2022-12-15T00:06:54.797Z,96.56
2022-12-15T00:07:05.787Z,96.56
2022-12-15T00:07:16.747Z,96.56
2022-12-15T00:07:27.704Z,96.45
2022-12-15T00:07:38.692Z,96.45
2022-12-15T00:07:49.737Z,96.45
2022-12-15T00:08:00.676Z,96.45
2022-12-15T00:08:11.695Z,96.45
2022-12-15T00:08:22.665Z,96.45
2022-12-15T00:08:33.656Z,96.56
2022-12-15T00:08:44.655Z,96.56
2022-12-15T00:08:55.648Z,96.66
2022-12-15T00:09:12.657Z,96.77
2022-12-15T00:09:20.551Z,96.77
2022-12-15T00:09:30.945Z,96.88
2022-12-15T00:09:39.603Z,96.98
2022-12-15T00:09:50.593Z,96.98
2022-12-15T00:10:01.586Z,97.09
2022-12-15T00:10:12.622Z,97.09
2022-12-15T00:10:23.574Z,97.09
2022-12-15T00:10:34.562Z,97.20
2022-12-15T00:10:45.550Z,97.20
2022-12-15T00:10:56.547Z,97.20
2022-12-15T00:11:07.541Z,97.20
2022-12-15T00:11:18.530Z,97.20
2022-12-15T00:11:29.518Z,97.20
2022-12-15T00:11:40.506Z,97.20
2022-12-15T00:11:51.504Z,97.20
2022-12-15T00:12:02.499Z,97.20
2022-12-15T00:12:13.488Z,97.27
2022-12-15T00:12:24.475Z,97.27
2022-12-15T00:12:35.468Z,97.27
2022-12-15T00:12:46.491Z,97.27
2022-12-15T00:12:57.452Z,97.37
2022-12-15T00:13:08.445Z,97.37
2022-12-15T00:13:19.436Z,97.37
2022-12-15T00:13:31.139Z,97.48
2022-12-15T00:13:41.415Z,97.48
2022-12-15T00:13:52.411Z,97.48
2022-12-15T00:14:03.404Z,97.48
2022-12-15T00:14:14.392Z,97.58
2022-12-15T00:14:25.385Z,97.58
2022-12-15T00:14:36.375Z,97.58
2022-12-15T00:14:47.370Z,97.58
2022-12-15T00:14:58.365Z,97.58
2022-12-15T00:15:09.360Z,97.58
2022-12-15T00:15:20.388Z,97.58
2022-12-15T00:15:31.337Z,97.58
2022-12-15T00:15:42.400Z,97.58
2022-12-15T00:15:53.402Z,97.58
2022-12-15T00:16:04.381Z,97.58
2022-12-15T00:16:15.314Z,97.58
2022-12-15T00:16:26.384Z,97.58
2022-12-15T00:16:37.330Z,97.48
2022-12-15T00:16:48.292Z,97.48
2022-12-15T00:16:59.266Z,97.48
2022-12-15T00:17:10.252Z,97.37
2022-12-15T00:17:21.239Z,97.37
2022-12-15T00:17:32.233Z,97.37
2022-12-15T00:17:43.230Z,97.37
2022-12-15T00:17:54.220Z,97.27
2022-12-15T00:18:05.210Z,97.27
2022-12-15T00:18:16.204Z,97.27
2022-12-15T00:18:27.201Z,97.27
2022-12-15T00:18:38.184Z,97.27
2022-12-15T00:18:49.179Z,97.27
2022-12-15T00:19:00.206Z,97.27
2022-12-15T00:19:11.157Z,97.37
2022-12-15T00:19:22.181Z,97.37
2022-12-15T00:19:33.128Z,97.48
2022-12-15T00:19:44.124Z,97.48
2022-12-15T00:19:55.107Z,97.48
2022-12-15T00:20:06.099Z,97.48
2022-12-15T00:20:17.086Z,97.58
2022-12-15T00:20:28.082Z,97.58
2022-12-15T00:20:39.070Z,97.58
2022-12-15T00:20:50.057Z,97.58
2022-12-15T00:21:01.052Z,97.69
2022-12-15T00:21:12.043Z,97.69
2022-12-15T00:21:23.026Z,97.69
2022-12-15T00:21:34.029Z,97.69
2022-12-15T00:21:45.003Z,97.69
2022-12-15T00:21:55.999Z,97.58
2022-12-15T00:22:06.986Z,97.58
2022-12-15T00:22:17.978Z,97.58
2022-12-15T00:22:28.974Z,97.58
2022-12-15T00:22:39.955Z,97.58
2022-12-15T00:22:50.949Z,97.48
2022-12-15T00:23:01.981Z,97.48
2022-12-15T00:23:12.927Z,97.37
2022-12-15T00:23:23.925Z,97.37
2022-12-15T00:23:34.907Z,97.37
2022-12-15T00:23:45.908Z,97.27
2022-12-15T00:23:56.892Z,97.27
2022-12-15T00:24:07.878Z,97.16
2022-12-15T00:24:18.869Z,97.16
2022-12-15T00:24:29.886Z,97.09
2022-12-15T00:24:40.872Z,97.09
2022-12-15T00:24:51.843Z,96.98
2022-12-15T00:25:02.828Z,96.98
2022-12-15T00:25:13.819Z,96.88
2022-12-15T00:25:24.812Z,96.77
2022-12-15T00:25:35.800Z,96.77
2022-12-15T00:25:46.794Z,96.66
2022-12-15T00:25:57.781Z,96.56
2022-12-15T00:26:08.775Z,96.56
2022-12-15T00:26:19.762Z,96.45
2022-12-15T00:26:30.755Z,96.34
2022-12-15T00:26:41.773Z,96.34
2022-12-15T00:26:52.736Z,96.34
2022-12-15T00:27:03.724Z,96.23
2022-12-15T00:27:14.711Z,96.23
2022-12-15T00:27:25.698Z,96.13
2022-12-15T00:27:36.685Z,96.13
2022-12-15T00:27:47.677Z,96.13
2022-12-15T00:27:58.680Z,96.13
2022-12-15T00:28:09.653Z,96.02
2022-12-15T00:28:20.646Z,96.13
2022-12-15T00:28:31.639Z,96.13
2022-12-15T00:28:42.628Z,96.02
2022-12-15T00:28:53.628Z,96.13
2022-12-15T00:29:04.607Z,96.13
2022-12-15T00:29:15.604Z,96.13
2022-12-15T00:29:26.580Z,96.13
2022-12-15T00:29:37.578Z,96.13
2022-12-15T00:29:48.569Z,96.13
2022-12-15T00:29:59.559Z,96.13
2022-12-15T00:30:10.552Z,96.23
2022-12-15T00:30:21.548Z,96.23
2022-12-15T00:30:32.529Z,96.23
2022-12-15T00:30:43.519Z,96.23
2022-12-15T00:31:00.537Z,96.23
2022-12-15T00:31:06.578Z,96.23
2022-12-15T00:31:16.533Z,96.23
2022-12-15T00:31:27.525Z,96.23
2022-12-15T00:31:38.513Z,96.23
2022-12-15T00:31:49.572Z,96.23
2022-12-15T00:32:00.525Z,96.13
2022-12-15T00:32:11.430Z,96.13
2022-12-15T00:32:22.416Z,96.13
2022-12-15T00:32:33.448Z,96.13
2022-12-15T00:32:44.398Z,96.13
2022-12-15T00:32:55.399Z,96.13
2022-12-15T00:33:06.375Z,96.13
2022-12-15T00:33:17.377Z,96.13
2022-12-15T00:33:28.825Z,96.13
2022-12-15T00:33:39.360Z,96.17
2022-12-15T00:33:50.343Z,96.13
2022-12-15T00:34:01.333Z,96.17
2022-12-15T00:34:12.317Z,96.17
2022-12-15T00:34:23.326Z,96.17
2022-12-15T00:34:34.355Z,96.17
2022-12-15T00:34:45.295Z,96.17
2022-12-15T00:34:56.273Z,96.17
2022-12-15T00:35:07.266Z,96.13
2022-12-15T00:35:18.263Z,96.13
2022-12-15T00:35:29.250Z,96.23
2022-12-15T00:35:40.234Z,96.23
2022-12-15T00:35:51.225Z,96.34
2022-12-15T00:36:02.217Z,96.45
2022-12-15T00:36:13.208Z,96.56
2022-12-15T00:36:24.206Z,96.66
2022-12-15T00:36:35.184Z,96.77
2022-12-15T00:36:46.179Z,96.88
2022-12-15T00:36:57.159Z,96.88
2022-12-15T00:37:08.153Z,96.98
2022-12-15T00:37:19.180Z,97.09
2022-12-15T00:37:30.132Z,97.20
2022-12-15T00:37:41.154Z,97.31
2022-12-15T00:37:52.115Z,97.37
2022-12-15T00:38:03.109Z,97.48
2022-12-15T00:38:14.176Z,97.58
2022-12-15T00:38:25.085Z,97.69
2022-12-15T00:38:36.080Z,97.80
2022-12-15T00:38:47.060Z,97.80
2022-12-15T00:39:01.912Z,97.91
2022-12-15T00:39:10.052Z,97.91
2022-12-15T00:39:20.041Z,98.02
2022-12-15T00:39:31.021Z,98.02
2022-12-15T00:39:42.015Z,98.12
2022-12-15T00:39:53.011Z,98.12
2022-12-15T00:40:04.003Z,98.23
2022-12-15T00:40:14.986Z,98.23
2022-12-15T00:40:25.978Z,98.33
2022-12-15T00:40:36.975Z,98.33
2022-12-15T00:40:47.989Z,98.33
2022-12-15T00:40:59.163Z,98.44
2022-12-15T00:41:09.947Z,98.44
2022-12-15T00:41:20.968Z,98.44
2022-12-15T00:41:31.929Z,98.55
2022-12-15T00:41:42.919Z,98.55
2022-12-15T00:41:53.916Z,98.55
2022-12-15T00:42:04.901Z,98.55
2022-12-15T00:42:15.899Z,98.66
2022-12-15T00:42:26.895Z,98.66
2022-12-15T00:42:37.878Z,98.61
2022-12-15T00:42:49.565Z,98.72
2022-12-15T00:42:59.868Z,98.72
2022-12-15T00:43:10.859Z,98.72
2022-12-15T00:43:21.854Z,98.83
2022-12-15T00:43:33.367Z,98.83
2022-12-15T00:43:43.875Z,98.83
2022-12-15T00:43:54.830Z,98.83
2022-12-15T00:44:05.818Z,98.94
2022-12-15T00:44:20.611Z,98.94
2022-12-15T00:44:27.796Z,98.94
2022-12-15T00:44:38.792Z,98.94
2022-12-15T00:44:49.783Z,99.04
2022-12-15T00:45:00.772Z,99.04
2022-12-15T00:45:11.763Z,99.04
2022-12-15T00:45:22.753Z,99.04
2022-12-15T00:45:33.747Z,99.04
2022-12-15T00:45:44.739Z,99.04
2022-12-15T00:45:55.733Z,99.04
2022-12-15T00:46:06.732Z,99.04
2022-12-15T00:46:17.788Z,99.04
2022-12-15T00:46:28.821Z,99.04
2022-12-15T00:46:39.725Z,99.15
2022-12-15T00:46:50.720Z,99.15
2022-12-15T00:47:01.751Z,99.26
2022-12-15T00:47:12.666Z,99.26
2022-12-15T00:47:23.659Z,99.37
2022-12-15T00:47:34.649Z,99.37
2022-12-15T00:47:45.642Z,99.43
2022-12-15T00:47:56.641Z,99.43
2022-12-15T00:48:07.624Z,99.54
2022-12-15T00:48:18.655Z,99.54
2022-12-15T00:48:29.608Z,99.64
2022-12-15T00:48:40.599Z,99.64
2022-12-15T00:48:51.606Z,99.64
2022-12-15T00:49:02.611Z,99.64
2022-12-15T00:49:13.576Z,99.64
2022-12-15T00:49:24.564Z,99.75
2022-12-15T00:49:35.561Z,99.75
2022-12-15T00:49:46.553Z,99.75
2022-12-15T00:49:57.545Z,99.75
2022-12-15T00:50:08.536Z,99.75
2022-12-15T00:50:19.540Z,99.75
2022-12-15T00:50:30.529Z,99.75
2022-12-15T00:50:41.515Z,99.71
2022-12-15T00:50:52.511Z,99.71
2022-12-15T00:51:03.498Z,99.81
2022-12-15T00:51:14.492Z,99.81
2022-12-15T00:51:25.511Z,99.81
2022-12-15T00:51:36.473Z,99.81
2022-12-15T00:51:47.468Z,99.81
2022-12-15T00:51:58.457Z,99.81
2022-12-15T00:52:09.455Z,99.81
2022-12-15T00:52:20.447Z,99.92
2022-12-15T00:52:31.442Z,99.92
2022-12-15T00:52:42.458Z,99.92
2022-12-15T00:52:53.424Z,99.92
2022-12-15T00:53:04.422Z,99.92
2022-12-15T00:53:15.411Z,99.81
2022-12-15T00:53:26.432Z,99.81
2022-12-15T00:53:37.409Z,99.81
2022-12-15T00:53:48.421Z,99.81
2022-12-15T00:53:59.395Z,99.81
2022-12-15T00:54:16.292Z,99.81
2022-12-15T00:54:22.379Z,99.71
2022-12-15T00:54:32.373Z,99.71
2022-12-15T00:54:43.356Z,99.71
2022-12-15T00:54:54.356Z,99.71
2022-12-15T00:55:05.357Z,99.71
2022-12-15T00:55:16.348Z,99.60
2022-12-15T00:55:27.343Z,99.60
2022-12-15T00:55:38.331Z,99.60
2022-12-15T00:55:49.320Z,99.60
2022-12-15T00:56:00.313Z,99.49
2022-12-15T00:56:11.303Z,99.49
2022-12-15T00:56:22.294Z,99.49
2022-12-15T00:56:33.302Z,99.49
2022-12-15T00:56:44.280Z,99.38
2022-12-15T00:56:55.269Z,99.38
2022-12-15T00:57:06.269Z,99.38
2022-12-15T00:57:17.258Z,99.27
2022-12-15T00:57:28.254Z,99.27
2022-12-15T00:57:39.243Z,99.27
2022-12-15T00:57:50.234Z,99.27
2022-12-15T00:58:01.240Z,99.27
2022-12-15T00:58:12.215Z,99.27
2022-12-15T00:58:23.208Z,99.17
2022-12-15T00:58:34.206Z,99.27
2022-12-15T00:58:45.194Z,99.17
2022-12-15T00:58:56.185Z,99.17
2022-12-15T00:59:07.220Z,99.17
2022-12-15T00:59:18.167Z,99.17
2022-12-15T00:59:29.163Z,99.17
2022-12-15T00:59:40.164Z,99.17
2022-12-15T00:59:51.148Z,99.17
2022-12-15T01:00:02.164Z,99.17
2022-12-15T01:00:13.131Z,99.06
2022-12-15T01:00:24.127Z,99.06
2022-12-15T01:00:35.117Z,99.06
2022-12-15T01:00:46.111Z,98.96
2022-12-15T01:00:57.101Z,99.00
2022-12-15T01:01:08.088Z,99.00
2022-12-15T01:01:19.232Z,98.89
2022-12-15T01:01:30.271Z,98.79
2022-12-15T01:01:41.190Z,98.79
2022-12-15T01:01:52.214Z,98.68
2022-12-15T01:02:03.243Z,98.68
2022-12-15T01:02:14.168Z,98.57
2022-12-15T01:02:25.152Z,98.57
2022-12-15T01:02:36.275Z,98.46
2022-12-15T01:02:47.252Z,98.36
2022-12-15T01:02:58.180Z,98.25
2022-12-15T01:03:09.262Z,98.25
2022-12-15T01:03:20.103Z,98.14
2022-12-15T01:03:31.692Z,98.03
2022-12-15T01:03:42.162Z,97.97
2022-12-15T01:03:53.016Z,97.92
2022-12-15T01:04:04.044Z,97.86
2022-12-15T01:04:15.049Z,97.86
2022-12-15T01:04:25.931Z,97.76
2022-12-15T01:04:36.916Z,97.65
2022-12-15T01:04:47.906Z,97.65
2022-12-15T01:04:58.899Z,97.54
2022-12-15T01:05:09.903Z,97.54
2022-12-15T01:05:20.873Z,97.44
2022-12-15T01:05:31.865Z,97.33
2022-12-15T01:05:42.862Z,97.33
2022-12-15T01:05:53.845Z,97.22
2022-12-15T01:06:04.838Z,97.22
2022-12-15T01:06:15.823Z,97.11
2022-12-15T01:06:26.820Z,97.11
2022-12-15T01:06:37.803Z,97.01
2022-12-15T01:06:48.797Z,97.01
2022-12-15T01:06:59.785Z,97.01
2022-12-15T01:07:10.782Z,96.90
2022-12-15T01:07:21.775Z,96.94
2022-12-15T01:07:32.769Z,96.94
2022-12-15T01:07:43.747Z,96.90
2022-12-15T01:07:55.737Z,96.83
2022-12-15T01:08:05.727Z,96.83
2022-12-15T01:08:16.717Z,96.83
2022-12-15T01:08:27.725Z,96.83
2022-12-15T01:08:38.724Z,96.73
2022-12-15T01:08:49.699Z,96.73
2022-12-15T01:09:00.692Z,96.73
2022-12-15T01:09:11.677Z,96.73
2022-12-15T01:09:22.663Z,96.73
2022-12-15T01:09:33.670Z,96.62
2022-12-15T01:09:44.650Z,96.62
2022-12-15T01:09:55.665Z,96.62
2022-12-15T01:10:06.630Z,96.62
2022-12-15T01:10:17.621Z,96.62
2022-12-15T01:10:28.618Z,96.51
2022-12-15T01:10:39.618Z,96.51
2022-12-15T01:10:50.612Z,96.51
2022-12-15T01:11:01.613Z,96.51
2022-12-15T01:11:12.599Z,96.41
2022-12-15T01:11:23.585Z,96.41
2022-12-15T01:11:34.581Z,96.45
2022-12-15T01:11:45.574Z,96.45
2022-12-15T01:11:56.589Z,96.34
2022-12-15T01:12:07.553Z,96.34
2022-12-15T01:12:18.571Z,96.34
2022-12-15T01:12:29.548Z,96.34
2022-12-15T01:12:40.541Z,96.23
2022-12-15T01:12:51.513Z,96.23
2022-12-15T01:13:02.507Z,96.23
2022-12-15T01:13:13.518Z,96.13
2022-12-15T01:13:24.491Z,96.13
2022-12-15T01:13:35.490Z,96.13
2022-12-15T01:13:49.887Z,96.02
2022-12-15T01:13:57.470Z,96.02
2022-12-15T01:14:08.459Z,96.02
2022-12-15T01:14:19.451Z,95.91
2022-12-15T01:14:30.446Z,95.91
2022-12-15T01:14:41.436Z,95.91
2022-12-15T01:14:52.446Z,95.91
2022-12-15T01:15:03.423Z,95.81
2022-12-15T01:15:14.411Z,95.81
2022-12-15T01:15:25.402Z,95.81
2022-12-15T01:15:36.396Z,95.81
2022-12-15T01:15:47.427Z,95.70
2022-12-15T01:15:58.433Z,95.70
2022-12-15T01:16:09.548Z,95.70
2022-12-15T01:16:20.483Z,95.70
2022-12-15T01:16:31.446Z,95.74
2022-12-15T01:16:42.396Z,95.70
2022-12-15T01:16:53.355Z,95.70
2022-12-15T01:17:04.338Z,95.70
2022-12-15T01:17:15.328Z,95.70
2022-12-15T01:17:26.330Z,95.70
2022-12-15T01:17:37.340Z,95.70
2022-12-15T01:17:48.304Z,95.85
2022-12-15T01:17:59.318Z,95.85
2022-12-15T01:18:10.292Z,95.85
2022-12-15T01:18:21.276Z,95.85
2022-12-15T01:18:32.269Z,95.95
2022-12-15T01:18:43.261Z,95.95
2022-12-15T01:18:55.261Z,95.95
2022-12-15T01:19:05.243Z,95.95
2022-12-15T01:19:16.636Z,95.95
2022-12-15T01:19:27.228Z,95.95
2022-12-15T01:19:38.218Z,95.95
2022-12-15T01:19:49.216Z,95.95
2022-12-15T01:20:00.211Z,95.95
2022-12-15T01:20:11.201Z,95.95
2022-12-15T01:20:22.199Z,95.95
2022-12-15T01:20:33.176Z,95.95
2022-12-15T01:20:44.171Z,95.95
2022-12-15T01:20:55.170Z,95.95
2022-12-15T01:21:06.164Z,95.95
2022-12-15T01:21:17.149Z,95.95
2022-12-15T01:21:28.141Z,95.95
2022-12-15T01:21:39.142Z,95.95
2022-12-15T01:21:50.154Z,96.06
2022-12-15T01:22:01.144Z,96.06
2022-12-15T01:22:12.114Z,96.06
2022-12-15T01:22:23.100Z,96.06
2022-12-15T01:22:34.129Z,96.06
2022-12-15T01:22:45.092Z,96.06
2022-12-15T01:22:56.072Z,96.06
2022-12-15T01:23:07.057Z,96.06
2022-12-15T01:23:18.068Z,96.06
2022-12-15T01:23:29.496Z,96.06
2022-12-15T01:23:40.026Z,96.06
2022-12-15T01:23:51.051Z,96.06
2022-12-15T01:24:02.026Z,96.06
2022-12-15T01:24:13.029Z,95.95
2022-12-15T01:24:23.981Z,95.95
2022-12-15T01:24:34.976Z,95.95
2022-12-15T01:24:45.965Z,95.95
2022-12-15T01:24:56.961Z,96.00
2022-12-15T01:25:07.948Z,96.00
2022-12-15T01:25:18.949Z,95.89
2022-12-15T01:25:29.933Z,95.89
2022-12-15T01:25:40.919Z,95.89
2022-12-15T01:25:51.948Z,95.89
2022-12-15T01:26:02.904Z,95.89
2022-12-15T01:26:13.902Z,95.89
2022-12-15T01:26:24.895Z,95.89
2022-12-15T01:26:35.869Z,95.89
2022-12-15T01:26:46.870Z,95.89
2022-12-15T01:26:57.857Z,95.89
2022-12-15T01:27:08.861Z,95.89
2022-12-15T01:27:19.835Z,95.89
2022-12-15T01:27:30.830Z,95.89
2022-12-15T01:27:41.822Z,95.89
2022-12-15T01:27:52.817Z,95.89
2022-12-15T01:28:03.798Z,95.89
2022-12-15T01:28:14.791Z,95.89
2022-12-15T01:28:25.791Z,95.89
2022-12-15T01:28:36.780Z,95.78
2022-12-15T01:28:47.768Z,95.78
2022-12-15T01:28:58.803Z,95.78
2022-12-15T01:29:09.762Z,95.78
2022-12-15T01:29:20.754Z,95.78
2022-12-15T01:29:31.742Z,95.78
2022-12-15T01:29:42.724Z,95.78
2022-12-15T01:29:53.714Z,95.78
2022-12-15T01:30:04.715Z,95.78
2022-12-15T01:30:15.696Z,95.89
2022-12-15T01:30:26.684Z,95.89
2022-12-15T01:30:37.690Z,95.89
2022-12-15T01:30:48.662Z,95.89
2022-12-15T01:30:59.753Z,95.89
2022-12-15T01:31:10.675Z,95.89
2022-12-15T01:31:21.659Z,95.89
2022-12-15T01:31:32.736Z,95.78
2022-12-15T01:31:43.654Z,95.78
2022-12-15T01:31:54.683Z,95.78
2022-12-15T01:32:05.608Z,95.78
2022-12-15T01:32:16.587Z,95.78
2022-12-15T01:32:27.581Z,95.78
2022-12-15T01:32:44.312Z,95.89
2022-12-15T01:32:50.577Z,95.89
2022-12-15T01:33:00.554Z,95.89
2022-12-15T01:33:11.541Z,95.89
2022-12-15T01:33:22.540Z,95.89
2022-12-15T01:33:33.866Z,95.89
2022-12-15T01:33:44.512Z,95.89
2022-12-15T01:33:55.508Z,95.89
2022-12-15T01:34:06.497Z,95.89
2022-12-15T01:34:17.486Z,95.89
2022-12-15T01:34:28.473Z,95.89
2022-12-15T01:34:39.458Z,96.00
2022-12-15T01:34:50.459Z,96.00
2022-12-15T01:35:01.448Z,96.00
2022-12-15T01:35:12.435Z,96.00
2022-12-15T01:35:23.414Z,96.00
2022-12-15T01:35:34.418Z,96.11
2022-12-15T01:35:45.394Z,96.11
2022-12-15T01:35:56.414Z,96.11
2022-12-15T01:36:07.375Z,96.11
2022-12-15T01:36:18.363Z,96.11
2022-12-15T01:36:29.351Z,96.22
2022-12-15T01:36:40.341Z,96.22
2022-12-15T01:36:51.337Z,96.22
2022-12-15T01:37:02.320Z,96.32
2022-12-15T01:37:13.307Z,96.32
2022-12-15T01:37:24.299Z,96.43
2022-12-15T01:37:35.290Z,96.43
2022-12-15T01:37:46.301Z,96.43
2022-12-15T01:37:57.269Z,96.53
2022-12-15T01:38:08.260Z,96.53
2022-12-15T01:38:19.249Z,96.53
2022-12-15T01:38:30.237Z,96.53
2022-12-15T01:38:41.235Z,96.64
2022-12-15T01:38:54.339Z,96.64
2022-12-15T01:39:03.338Z,96.64
2022-12-15T01:39:14.217Z,96.64
2022-12-15T01:39:25.179Z,96.64
2022-12-15T01:39:36.183Z,96.64
2022-12-15T01:39:47.160Z,96.64
2022-12-15T01:39:58.154Z,96.64
2022-12-15T01:40:09.142Z,96.64
2022-12-15T01:40:20.131Z,96.64
2022-12-15T01:40:31.117Z,96.64
2022-12-15T01:40:42.110Z,96.64
2022-12-15T01:40:53.090Z,96.64
2022-12-15T01:41:04.090Z,96.64
2022-12-15T01:41:15.075Z,96.64
2022-12-15T01:41:26.064Z,96.64
2022-12-15T01:41:37.054Z,96.64
2022-12-15T01:41:48.042Z,96.69
2022-12-15T01:41:59.035Z,96.69
2022-12-15T01:42:10.022Z,96.64
2022-12-15T01:42:21.017Z,96.64
2022-12-15T01:42:31.993Z,96.64
2022-12-15T01:42:43.004Z,96.69
2022-12-15T01:42:53.973Z,96.69
2022-12-15T01:43:04.961Z,96.64
2022-12-15T01:43:15.949Z,96.69
2022-12-15T01:43:27.069Z,96.69
2022-12-15T01:43:37.941Z,96.64
2022-12-15T01:43:49.722Z,96.69
2022-12-15T01:43:59.908Z,96.58
2022-12-15T01:44:10.899Z,96.58
2022-12-15T01:44:21.891Z,96.58
2022-12-15T01:44:32.888Z,96.47
2022-12-15T01:44:43.875Z,96.47
2022-12-15T01:44:54.855Z,96.47
2022-12-15T01:45:05.855Z,96.47
2022-12-15T01:45:16.833Z,96.47
2022-12-15T01:45:27.823Z,96.47
2022-12-15T01:45:38.832Z,96.47
2022-12-15T01:45:49.799Z,96.47
2022-12-15T01:46:00.789Z,96.47
2022-12-15T01:46:11.949Z,96.47
2022-12-15T01:46:22.823Z,96.47
2022-12-15T01:46:33.767Z,96.47
2022-12-15T01:46:44.849Z,96.47
2022-12-15T01:46:55.768Z,96.47
2022-12-15T01:47:06.795Z,96.47
2022-12-15T01:47:17.723Z,96.47
2022-12-15T01:47:28.712Z,96.47
2022-12-15T01:47:39.706Z,96.47
2022-12-15T01:47:50.688Z,96.47
2022-12-15T01:48:01.689Z,96.47
2022-12-15T01:48:12.676Z,96.36
2022-12-15T01:48:23.659Z,96.36
2022-12-15T01:48:34.648Z,96.26
2022-12-15T01:48:45.648Z,96.26
2022-12-15T01:48:56.627Z,96.26
2022-12-15T01:49:07.620Z,96.15
2022-12-15T01:49:18.607Z,96.15
2022-12-15T01:49:29.603Z,96.04
2022-12-15T01:49:40.589Z,95.94
2022-12-15T01:49:51.580Z,95.94
2022-12-15T01:50:02.564Z,95.83
2022-12-15T01:50:13.556Z,95.76
2022-12-15T01:50:24.549Z,95.76
2022-12-15T01:50:35.616Z,95.65
2022-12-15T01:50:46.525Z,95.54
2022-12-15T01:50:57.545Z,95.54
2022-12-15T01:51:08.498Z,95.44
2022-12-15T01:51:19.514Z,95.44
2022-12-15T01:51:30.483Z,95.44
2022-12-15T01:51:41.482Z,95.33
2022-12-15T01:51:52.482Z,95.33
2022-12-15T01:52:03.449Z,95.22
2022-12-15T01:52:14.440Z,95.22
2022-12-15T01:52:25.421Z,95.22
2022-12-15T01:52:36.414Z,95.22
2022-12-15T01:52:49.735Z,95.22
2022-12-15T01:52:58.387Z,95.12
2022-12-15T01:53:09.385Z,95.12
2022-12-15T01:53:20.372Z,95.12
2022-12-15T01:53:31.913Z,95.22
2022-12-15T01:53:42.348Z,95.22
2022-12-15T01:53:53.339Z,95.22
2022-12-15T01:54:04.336Z,95.22
2022-12-15T01:54:15.343Z,95.22
2022-12-15T01:54:26.305Z,95.33
2022-12-15T01:54:37.299Z,95.33
2022-12-15T01:54:48.511Z,95.44
2022-12-15T01:54:59.278Z,95.44
2022-12-15T01:55:10.264Z,95.54
2022-12-15T01:55:21.249Z,95.65
2022-12-15T01:55:32.244Z,95.65
2022-12-15T01:55:43.265Z,95.65
2022-12-15T01:55:54.218Z,95.76
2022-12-15T01:56:05.212Z,95.76
2022-12-15T01:56:16.197Z,95.76
2022-12-15T01:56:30.005Z,95.76
2022-12-15T01:56:39.172Z,95.87
2022-12-15T01:56:49.162Z,95.87
2022-12-15T01:57:00.161Z,95.87
2022-12-15T01:57:11.151Z,95.87
2022-12-15T01:57:22.134Z,95.87
2022-12-15T01:57:33.112Z,95.87
2022-12-15T01:57:44.106Z,95.87
2022-12-15T01:57:55.108Z,95.87
2022-12-15T01:58:06.084Z,95.87
2022-12-15T01:58:17.077Z,95.87
2022-12-15T01:58:28.100Z,95.87
2022-12-15T01:58:39.058Z,95.98
2022-12-15T01:58:50.046Z,95.98
2022-12-15T01:59:01.040Z,96.08
2022-12-15T01:59:12.033Z,96.19
2022-12-15T01:59:23.084Z,96.19
2022-12-15T01:59:34.022Z,96.19
2022-12-15T01:59:45.001Z,96.30
2022-12-15T01:59:55.987Z,96.30
2022-12-15T02:00:06.976Z,96.30
2022-12-15T02:00:17.981Z,96.41
2022-12-15T02:00:29.009Z,96.41
2022-12-15T02:00:40.022Z,96.41
2022-12-15T02:00:50.961Z,96.51
2022-12-15T02:01:01.955Z,96.51
2022-12-15T02:01:13.086Z,96.51
2022-12-15T02:01:24.127Z,96.51
2022-12-15T02:01:35.065Z,96.62
2022-12-15T02:01:49.530Z,96.62
2022-12-15T02:01:57.072Z,96.62
2022-12-15T02:02:07.983Z,96.62
2022-12-15T02:02:18.942Z,96.62
2022-12-15T02:02:29.973Z,96.62
2022-12-15T02:02:40.984Z,96.62
2022-12-15T02:02:52.075Z,96.62
2022-12-15T02:03:03.003Z,96.73
2022-12-15T02:03:13.836Z,96.73
2022-12-15T02:03:24.912Z,96.84
2022-12-15T02:03:36.161Z,96.84
2022-12-15T02:03:46.814Z,96.84
2022-12-15T02:03:57.804Z,96.94
2022-12-15T02:04:08.785Z,96.94
2022-12-15T02:04:19.816Z,96.94
2022-12-15T02:04:30.769Z,96.94
2022-12-15T02:04:41.759Z,96.94
2022-12-15T02:04:52.766Z,96.94
2022-12-15T02:05:03.742Z,96.94
2022-12-15T02:05:14.746Z,96.94
2022-12-15T02:05:25.728Z,96.94
2022-12-15T02:05:36.730Z,96.94
2022-12-15T02:05:47.721Z,96.94
2022-12-15T02:05:58.706Z,96.94
2022-12-15T02:06:09.694Z,96.94
2022-12-15T02:06:20.690Z,96.94
2022-12-15T02:06:31.684Z,96.94
2022-12-15T02:06:42.667Z,96.94
2022-12-15T02:06:53.672Z,96.94
2022-12-15T02:07:04.654Z,96.94
2022-12-15T02:07:15.646Z,97.05
2022-12-15T02:07:26.635Z,97.05
2022-12-15T02:07:37.620Z,97.05
2022-12-15T02:07:48.618Z,97.05
2022-12-15T02:07:59.611Z,97.05
2022-12-15T02:08:10.607Z,97.16
2022-12-15T02:08:21.623Z,97.16
2022-12-15T02:08:32.584Z,97.16
2022-12-15T02:08:43.583Z,97.16
2022-12-15T02:08:54.565Z,97.16
2022-12-15T02:09:05.550Z,97.16
2022-12-15T02:09:16.551Z,97.16
2022-12-15T02:09:27.562Z,97.16
2022-12-15T02:09:38.521Z,97.16
2022-12-15T02:09:49.520Z,97.05
2022-12-15T02:10:00.517Z,97.05
2022-12-15T02:10:11.501Z,97.05
2022-12-15T02:10:22.491Z,96.94
2022-12-15T02:10:33.479Z,96.94
2022-12-15T02:10:44.468Z,96.84
2022-12-15T02:10:55.470Z,96.84
2022-12-15T02:11:06.458Z,96.84
2022-12-15T02:11:17.448Z,96.84
2022-12-15T02:11:28.449Z,96.73
2022-12-15T02:11:39.429Z,96.73
2022-12-15T02:11:50.426Z,96.73
2022-12-15T02:12:01.445Z,96.73
2022-12-15T02:12:12.405Z,96.73
2022-12-15T02:12:23.394Z,96.73
2022-12-15T02:12:34.382Z,96.73
2022-12-15T02:12:45.373Z,96.73
2022-12-15T02:12:56.372Z,96.73
2022-12-15T02:13:07.354Z,96.73
2022-12-15T02:13:18.348Z,96.73
2022-12-15T02:13:29.728Z,96.73
2022-12-15T02:13:40.338Z,96.73
2022-12-15T02:13:51.314Z,96.73
2022-12-15T02:14:02.310Z,96.73
2022-12-15T02:14:13.307Z,96.73
2022-12-15T02:14:24.284Z,96.73
2022-12-15T02:14:35.280Z,96.73
2022-12-15T02:14:46.266Z,96.73
2022-12-15T02:14:57.258Z,96.73
2022-12-15T02:15:08.257Z,96.73
2022-12-15T02:15:19.251Z,96.73
2022-12-15T02:15:30.236Z,96.73
2022-12-15T02:15:41.226Z,96.73
2022-12-15T02:15:52.238Z,96.73
2022-12-15T02:16:03.253Z,96.73
2022-12-15T02:16:14.223Z,96.73
2022-12-15T02:16:25.239Z,96.73
2022-12-15T02:16:36.256Z,96.73
2022-12-15T02:16:47.244Z,96.73
2022-12-15T02:16:58.196Z,96.73
2022-12-15T02:17:09.153Z,96.73
2022-12-15T02:17:20.167Z,96.73
2022-12-15T02:17:31.136Z,96.73
2022-12-15T02:17:42.125Z,96.73
2022-12-15T02:17:53.110Z,96.73
2022-12-15T02:18:04.111Z,96.84
2022-12-15T02:18:15.088Z,96.84
2022-12-15T02:18:26.082Z,96.80
2022-12-15T02:18:37.071Z,96.84
2022-12-15T02:18:48.076Z,96.84
2022-12-15T02:18:59.057Z,96.80
2022-12-15T02:19:10.038Z,96.84
2022-12-15T02:19:21.065Z,96.80
2022-12-15T02:19:32.024Z,96.80
2022-12-15T02:19:43.025Z,96.80
2022-12-15T02:19:54.001Z,96.80
2022-12-15T02:20:04.995Z,96.90
2022-12-15T02:20:15.988Z,96.80
2022-12-15T02:20:26.971Z,96.80
2022-12-15T02:20:37.975Z,96.80
2022-12-15T02:20:48.955Z,96.80
2022-12-15T02:20:59.944Z,96.80
2022-12-15T02:21:10.937Z,96.80
2022-12-15T02:21:21.932Z,96.80
2022-12-15T02:21:32.920Z,96.80